Time;durP1;ratioP1;P1;durP2;ratioP2;P2;SDS_P1;SDS_P2;PMS_P1;PMS_P2;Temp;Humidity;BMP_temperature;BMP_pressure;BME280_temperature;BME280_humidity;BME280_pressure;Samples;Min_cycle;Max_cycle;Signal;HPM_P1;HPM_P2
2022/03/03 00:01:37;;;;;;;20.33;15.80;;;6.10;72.30;;;;;;5048071;28;20544;-70
2022/03/03 00:04:03;;;;;;;16.20;13.70;;;6.00;72.10;;;;;;5052666;28;20516;-67
2022/03/03 00:06:29;;;;;;;20.48;15.00;;;5.90;72.50;;;;;;5035126;28;20173;-79
2022/03/03 00:08:55;;;;;;;18.13;14.53;;;5.90;72.40;;;;;;5052485;28;20260;-67
2022/03/03 00:11:21;;;;;;;24.47;15.50;;;5.80;72.30;;;;;;5050881;28;20421;-68
2022/03/03 00:13:46;;;;;;;19.50;14.13;;;5.80;72.50;;;;;;5052731;28;20424;-73
2022/03/03 00:16:13;;;;;;;20.00;15.23;;;5.80;73.00;;;;;;5053395;28;20188;-67
2022/03/03 00:18:39;;;;;;;19.53;14.73;;;5.70;73.50;;;;;;5052774;28;20232;-67
2022/03/03 00:21:04;;;;;;;20.87;14.63;;;5.70;73.80;;;;;;5054475;28;20464;-67
2022/03/03 00:23:31;;;;;;;19.27;14.83;;;5.40;73.80;;;;;;5052710;28;20403;-80
2022/03/03 00:25:56;;;;;;;19.13;14.32;;;5.60;74.40;;;;;;5052416;28;20323;-72
2022/03/03 00:28:22;;;;;;;18.90;14.27;;;5.60;74.10;;;;;;5052201;28;20179;-67
2022/03/03 00:30:48;;;;;;;19.77;14.60;;;5.50;74.30;;;;;;5052729;28;20174;-68
2022/03/03 00:33:14;;;;;;;20.40;14.30;;;5.50;74.50;;;;;;5053965;28;20243;-68
2022/03/03 00:35:39;;;;;;;20.30;14.63;;;5.50;74.80;;;;;;5052791;28;20292;-68
2022/03/03 00:38:05;;;;;;;17.57;14.50;;;5.50;75.20;;;;;;5053641;28;20277;-67
2022/03/03 00:40:31;;;;;;;26.27;18.67;;;5.50;75.70;;;;;;5052213;28;20552;-78
2022/03/03 00:42:57;;;;;;;22.63;18.23;;;5.40;76.00;;;;;;5054234;28;20236;-67
2022/03/03 00:45:23;;;;;;;19.73;15.77;;;5.30;76.30;;;;;;5053268;28;20296;-67
2022/03/03 00:47:49;;;;;;;24.00;17.83;;;5.40;76.50;;;;;;5054697;28;20598;-67
2022/03/03 00:50:16;;;;;;;22.98;16.50;;;5.40;76.40;;;;;;5055091;28;20173;-69
2022/03/03 00:52:41;;;;;;;20.83;17.58;;;5.40;76.40;;;;;;5051889;28;20609;-67
2022/03/03 00:55:08;;;;;;;23.33;17.43;;;5.40;76.30;;;;;;5053104;28;20267;-67
2022/03/03 00:57:34;;;;;;;25.92;17.92;;;5.40;76.40;;;;;;5050120;28;20668;-68
2022/03/03 01:00:00;;;;;;;22.75;17.02;;;5.40;76.50;;;;;;5054355;28;20255;-67
2022/03/03 01:02:26;;;;;;;23.35;16.15;;;5.50;76.60;;;;;;5053215;28;20300;-81
2022/03/03 01:04:52;;;;;;;22.20;16.88;;;5.50;76.50;;;;;;5054069;28;20638;-67
2022/03/03 01:07:18;;;;;;;21.00;16.30;;;5.40;76.20;;;;;;5054432;28;20174;-66
2022/03/03 01:09:44;;;;;;;20.53;16.07;;;5.30;75.80;;;;;;5053359;28;20419;-67
2022/03/03 01:12:10;;;;;;;22.43;15.87;;;5.40;76.10;;;;;;5053693;28;20407;-67
2022/03/03 01:14:36;;;;;;;19.53;15.27;;;5.30;76.60;;;;;;5051798;28;20669;-67
2022/03/03 01:17:01;;;;;;;20.23;15.97;;;5.30;76.90;;;;;;5053660;28;20579;-67
2022/03/03 01:19:27;;;;;;;19.50;16.00;;;5.30;77.30;;;;;;5053851;28;20281;-81
2022/03/03 01:21:53;;;;;;;17.70;14.87;;;5.30;77.20;;;;;;5051905;28;20229;-67
2022/03/03 01:24:18;;;;;;;17.67;15.80;;;5.30;77.20;;;;;;5053919;28;20586;-67
2022/03/03 01:26:44;;;;;;;21.10;15.23;;;5.30;77.10;;;;;;5050644;28;20182;-68
2022/03/03 01:29:11;;;;;;;18.40;14.30;;;5.30;76.70;;;;;;5052174;28;20170;-67
2022/03/03 01:31:37;;;;;;;22.10;15.40;;;5.30;76.40;;;;;;5051627;28;20229;-67
2022/03/03 01:34:03;;;;;;;18.63;14.95;;;5.30;76.90;;;;;;5053374;28;20174;-67
2022/03/03 01:36:33;;;;;;;19.77;15.00;;;5.30;77.50;;;;;;5053182;28;20581;-82
2022/03/03 01:39:00;;;;;;;18.75;15.40;;;5.30;77.60;;;;;;5053512;28;20206;-67
2022/03/03 01:41:25;;;;;;;21.33;16.35;;;5.30;77.40;;;;;;5052176;28;20171;-67
2022/03/03 01:43:51;;;;;;;27.13;15.90;;;5.30;77.00;;;;;;5052285;28;20180;-68
2022/03/03 01:46:17;;;;;;;21.50;15.10;;;5.20;76.80;;;;;;5052520;28;20176;-67
2022/03/03 01:48:45;;;;;;;18.47;15.73;;;5.20;77.20;;;;;;5053804;28;20601;-68
2022/03/03 01:51:12;;;;;;;19.35;15.50;;;5.20;77.30;;;;;;5053444;28;20571;-67
2022/03/03 01:53:38;;;;;;;21.75;15.75;;;5.20;77.30;;;;;;5052419;28;20182;-68
2022/03/03 01:56:05;;;;;;;19.38;14.98;;;4.80;77.10;;;;;;5052931;28;20201;-68
2022/03/03 01:58:31;;;;;;;25.88;15.85;;;5.20;77.50;;;;;;5051356;28;20264;-77
2022/03/03 02:00:57;;;;;;;16.67;13.97;;;5.20;77.70;;;;;;5050675;28;20269;-68
2022/03/03 02:03:23;;;;;;;20.77;14.60;;;5.20;78.00;;;;;;5050457;28;20419;-67
2022/03/03 02:05:49;;;;;;;20.33;14.30;;;5.20;77.50;;;;;;5050546;28;20448;-68
2022/03/03 02:08:15;;;;;;;17.00;14.75;;;5.20;77.60;;;;;;5051515;28;20203;-72
2022/03/03 02:10:41;;;;;;;18.83;14.87;;;5.30;78.50;;;;;;5051073;28;20205;-68
2022/03/03 02:13:07;;;;;;;19.00;14.33;;;5.10;79.30;;;;;;5052706;28;20402;-67
2022/03/03 02:15:33;;;;;;;17.98;14.73;;;5.10;79.50;;;;;;5051925;28;20460;-69
2022/03/03 02:17:59;;;;;;;17.30;14.00;;;5.00;79.10;;;;;;5052979;28;20178;-68
2022/03/03 02:20:27;;;;;;;19.25;14.63;;;4.90;79.30;;;;;;5052736;28;20463;-67
2022/03/03 02:22:55;;;;;;;18.40;14.63;;;4.90;79.50;;;;;;5050467;28;20186;-71
2022/03/03 02:25:22;;;;;;;19.15;15.07;;;4.70;79.40;;;;;;5048951;28;20259;-68
2022/03/03 02:27:48;;;;;;;19.75;14.73;;;4.90;79.50;;;;;;5050522;28;20198;-67
2022/03/03 02:30:16;;;;;;;17.08;14.88;;;4.80;79.50;;;;;;5051038;28;20264;-70
2022/03/03 02:32:42;;;;;;;18.58;14.73;;;4.80;79.80;;;;;;5048778;28;20178;-67
2022/03/03 02:35:08;;;;;;;20.88;15.23;;;4.70;80.00;;;;;;5052721;28;20306;-67
2022/03/03 02:37:36;;;;;;;20.05;14.00;;;4.70;80.00;;;;;;5051150;28;20335;-68
2022/03/03 02:40:06;;;;;;;19.65;15.45;;;4.70;80.40;;;;;;5050438;28;20510;-71
2022/03/03 02:42:32;;;;;;;19.27;14.65;;;4.60;80.60;;;;;;5048742;28;20169;-77
2022/03/03 02:44:58;;;;;;;21.07;14.40;;;4.60;81.20;;;;;;5051177;28;20181;-68
2022/03/03 02:47:23;;;;;;;18.00;14.57;;;4.20;81.10;;;;;;5051234;28;20212;-71
2022/03/03 02:49:49;;;;;;;19.10;14.70;;;4.60;81.60;;;;;;5050112;28;20780;-68
2022/03/03 02:52:15;;;;;;;17.60;15.00;;;4.20;80.30;;;;;;5050689;28;20208;-71
2022/03/03 02:54:40;;;;;;;19.87;14.90;;;4.60;80.50;;;;;;5050282;28;20220;-68
2022/03/03 02:59:58;;;;;;;18.50;15.15;;;4.80;81.30;;;;;;5043111;28;20221;-68
2022/03/03 03:02:24;;;;;;;21.30;15.67;;;4.60;81.00;;;;;;5049573;28;20593;-68
2022/03/03 03:04:49;;;;;;;21.07;15.70;;;4.60;81.40;;;;;;5049966;28;20251;-68
2022/03/03 03:07:15;;;;;;;18.40;15.50;;;4.60;81.80;;;;;;5051320;28;20695;-68
2022/03/03 03:09:41;;;;;;;20.03;14.83;;;4.60;82.10;;;;;;5051304;28;20210;-68
2022/03/03 03:12:08;;;;;;;18.47;14.03;;;4.20;82.10;;;;;;5050776;28;20685;-67
2022/03/03 03:14:34;;;;;;;20.48;15.25;;;4.60;82.70;;;;;;5049808;28;20213;-72
2022/03/03 03:17:00;;;;;;;19.13;15.00;;;4.60;82.20;;;;;;5052050;28;20181;-68
2022/03/03 03:19:26;;;;;;;17.93;14.03;;;4.60;81.70;;;;;;5052041;28;20422;-68
2022/03/03 03:21:51;;;;;;;20.43;16.33;;;4.50;81.80;;;;;;5050822;28;21099;-68
2022/03/03 03:24:17;;;;;;;17.87;15.30;;;4.20;81.60;;;;;;5051993;28;20181;-67
2022/03/03 03:26:43;;;;;;;17.60;14.53;;;4.50;81.80;;;;;;5051175;28;20507;-67
2022/03/03 03:29:09;;;;;;;19.80;15.33;;;4.50;81.50;;;;;;5051919;28;20177;-68
2022/03/03 03:31:35;;;;;;;20.90;15.10;;;4.00;81.30;;;;;;5050933;28;20185;-77
2022/03/03 03:34:00;;;;;;;17.70;13.83;;;4.40;81.90;;;;;;5051773;28;20427;-67
2022/03/03 03:36:26;;;;;;;19.80;15.50;;;4.00;81.30;;;;;;5051884;28;20197;-67
2022/03/03 03:38:53;;;;;;;20.93;15.17;;;4.40;82.00;;;;;;5051104;28;20179;-67
2022/03/03 03:41:18;;;;;;;21.02;15.25;;;4.30;82.00;;;;;;5051881;28;20573;-68
2022/03/03 03:43:44;;;;;;;20.67;16.13;;;4.30;82.20;;;;;;5050499;28;20262;-68
2022/03/03 03:46:10;;;;;;;18.83;15.43;;;4.30;82.10;;;;;;5051447;28;20662;-68
2022/03/03 03:48:36;;;;;;;19.07;14.97;;;4.40;83.40;;;;;;5050486;28;20185;-69
2022/03/03 03:51:02;;;;;;;21.90;15.77;;;4.30;82.60;;;;;;5050858;28;20634;-67
2022/03/03 03:53:27;;;;;;;21.13;15.17;;;4.30;82.80;;;;;;5051739;28;20585;-68
2022/03/03 03:55:53;;;;;;;23.17;15.80;;;3.80;82.60;;;;;;5050871;28;20297;-68
2022/03/03 03:58:19;;;;;;;19.33;15.13;;;4.30;83.40;;;;;;5051479;28;20174;-68
2022/03/03 04:00:45;;;;;;;19.85;17.17;;;4.20;83.40;;;;;;5050428;28;20178;-68
2022/03/03 04:03:11;;;;;;;18.90;15.13;;;3.80;83.10;;;;;;5050311;28;20180;-67
2022/03/03 04:05:37;;;;;;;19.47;16.10;;;3.90;84.10;;;;;;5049690;28;20429;-71
2022/03/03 04:08:03;;;;;;;23.33;16.57;;;4.30;84.30;;;;;;5051681;28;20205;-68
2022/03/03 04:10:28;;;;;;;23.50;17.00;;;4.20;85.20;;;;;;5051605;28;20227;-67
2022/03/03 04:12:58;;;;;;;19.50;15.67;;;4.20;85.90;;;;;;5049650;28;20847;-68
2022/03/03 04:15:24;;;;;;;19.33;15.32;;;3.80;85.00;;;;;;5050291;28;20229;-67
2022/03/03 04:17:50;;;;;;;23.35;15.35;;;4.10;84.90;;;;;;5050749;28;20524;-67
2022/03/03 04:20:18;;;;;;;21.27;16.20;;;4.20;84.30;;;;;;5050969;28;20228;-67
2022/03/03 04:22:43;;;;;;;21.02;14.43;;;4.10;84.40;;;;;;5049490;28;20936;-68
2022/03/03 04:25:10;;;;;;;20.00;14.50;;;4.10;85.00;;;;;;5053079;28;20189;-67
2022/03/03 04:27:37;;;;;;;17.67;14.35;;;3.80;85.20;;;;;;5053033;28;20174;-77
2022/03/03 04:30:09;;;;;;;17.17;15.15;;;4.20;85.60;;;;;;5055228;28;20201;-67
2022/03/03 04:32:38;;;;;;;15.65;13.40;;;4.10;85.30;;;;;;5054518;28;20177;-79
2022/03/03 04:35:05;;;;;;;16.67;13.77;;;3.70;85.10;;;;;;5054883;28;20267;-68
2022/03/03 04:37:31;;;;;;;18.58;13.70;;;4.10;84.70;;;;;;5054208;28;20178;-67
2022/03/03 04:39:57;;;;;;;17.10;14.10;;;4.10;84.70;;;;;;5052730;28;20174;-69
2022/03/03 04:42:23;;;;;;;19.03;15.10;;;4.10;84.70;;;;;;5054614;28;20192;-67
2022/03/03 04:44:49;;;;;;;21.70;16.10;;;3.60;85.40;;;;;;5053997;28;20383;-67
2022/03/03 04:47:14;;;;;;;19.43;15.43;;;3.50;86.00;;;;;;5054446;28;20186;-67
2022/03/03 04:49:40;;;;;;;21.90;16.53;;;3.70;86.00;;;;;;5053332;28;20416;-68
2022/03/03 04:52:07;;;;;;;20.38;15.50;;;4.00;87.00;;;;;;5054768;28;20185;-67
2022/03/03 04:54:32;;;;;;;22.65;16.60;;;3.60;86.00;;;;;;5054535;28;20393;-67
2022/03/03 04:56:58;;;;;;;22.60;16.77;;;4.00;86.20;;;;;;5053054;28;20250;-67
2022/03/03 04:59:24;;;;;;;17.63;15.40;;;3.70;85.80;;;;;;5054306;28;20769;-67
2022/03/03 05:01:51;;;;;;;22.37;16.07;;;4.00;86.50;;;;;;5053250;28;20186;-67
2022/03/03 05:04:17;;;;;;;19.75;15.57;;;4.00;87.30;;;;;;5054512;28;20174;-67
2022/03/03 05:06:47;;;;;;;21.10;16.38;;;3.90;87.80;;;;;;5053353;28;20264;-68
2022/03/03 05:09:14;;;;;;;21.58;14.45;;;3.90;88.10;;;;;;5052773;28;20634;-67
2022/03/03 05:11:40;;;;;;;18.20;15.25;;;3.50;87.50;;;;;;5052661;28;20185;-81
2022/03/03 05:14:06;;;;;;;20.40;14.95;;;3.90;88.00;;;;;;5053723;28;20174;-67
2022/03/03 05:16:32;;;;;;;19.48;15.27;;;3.90;87.20;;;;;;5053919;28;20244;-66
2022/03/03 05:18:57;;;;;;;20.67;15.20;;;3.90;87.40;;;;;;5053679;28;20174;-66
2022/03/03 05:21:23;;;;;;;22.10;15.73;;;3.40;87.00;;;;;;5053895;28;20221;-67
2022/03/03 05:23:49;;;;;;;19.90;15.20;;;3.90;87.20;;;;;;5049898;28;20182;-67
2022/03/03 05:26:15;;;;;;;21.88;16.13;;;4.10;87.00;;;;;;5053634;28;20391;-70
2022/03/03 05:28:42;;;;;;;21.33;16.87;;;3.90;86.70;;;;;;5053336;28;20188;-81
2022/03/03 05:31:08;;;;;;;19.42;15.63;;;3.90;86.80;;;;;;5054063;28;20456;-67
2022/03/03 05:33:34;;;;;;;22.40;16.20;;;3.90;87.10;;;;;;5054096;28;20220;-67
2022/03/03 05:36:04;;;;;;;20.98;16.00;;;3.80;87.30;;;;;;5051523;28;20891;-66
2022/03/03 05:38:31;;;;;;;24.58;16.08;;;3.60;87.10;;;;;;5053184;28;20665;-65
2022/03/03 05:40:58;;;;;;;20.30;15.82;;;3.80;87.30;;;;;;5052821;28;20180;-65
2022/03/03 05:43:25;;;;;;;27.15;17.50;;;3.70;88.20;;;;;;5053880;28;20513;-65
2022/03/03 05:45:51;;;;;;;21.92;15.68;;;3.50;89.40;;;;;;5052615;28;20186;-65
2022/03/03 05:48:19;;;;;;;22.05;16.95;;;3.70;90.00;;;;;;5052513;28;20538;-65
2022/03/03 05:50:45;;;;;;;22.92;15.55;;;3.60;89.90;;;;;;5053269;28;20239;-65
2022/03/03 05:53:11;;;;;;;17.95;15.00;;;3.60;89.90;;;;;;5054119;28;20185;-65
2022/03/03 05:55:47;;;;;;;20.90;15.80;;;3.80;89.60;;;;;;5052520;28;20206;-65
2022/03/03 05:58:18;;;;;;;19.83;14.90;;;3.70;89.00;;;;;;5053786;28;20412;-65
2022/03/03 06:00:46;;;;;;;16.65;13.80;;;3.80;88.80;;;;;;5053050;28;20256;-65
2022/03/03 06:03:17;;;;;;;16.85;14.60;;;3.70;88.70;;;;;;5053397;28;20181;-65
2022/03/03 06:05:50;;;;;;;16.13;14.02;;;3.40;88.40;;;;;;5052620;28;20646;-66
2022/03/03 06:08:23;;;;;;;18.38;13.88;;;3.70;88.90;;;;;;5053637;28;20489;-65
2022/03/03 06:10:53;;;;;;;17.48;14.50;;;3.20;87.60;;;;;;5052995;28;20165;-65
2022/03/03 06:13:24;;;;;;;17.15;14.38;;;3.70;88.60;;;;;;5053259;28;20181;-66
2022/03/03 06:15:54;;;;;;;17.45;14.02;;;3.40;88.50;;;;;;5052472;28;20724;-65
2022/03/03 06:18:27;;;;;;;20.17;15.35;;;3.50;87.90;;;;;;5053747;28;20170;-67
2022/03/03 06:20:54;;;;;;;19.98;14.48;;;3.70;88.40;;;;;;5051120;28;20229;-67
2022/03/03 06:23:21;;;;;;;21.80;14.85;;;3.20;88.50;;;;;;5051441;28;20189;-68
2022/03/03 06:25:57;;;;;;;20.75;16.13;;;3.20;89.20;;;;;;5050770;28;20292;-68
2022/03/03 06:28:23;;;;;;;19.35;15.00;;;3.30;89.60;;;;;;5034955;28;20181;-67
2022/03/03 06:30:49;;;;;;;22.33;15.13;;;3.60;89.90;;;;;;5051642;28;20192;-68
2022/03/03 06:33:14;;;;;;;18.40;14.47;;;3.60;90.00;;;;;;5052271;28;20544;-67
2022/03/03 06:35:40;;;;;;;19.87;15.40;;;3.70;90.00;;;;;;5052241;28;20197;-67
2022/03/03 06:38:07;;;;;;;26.00;17.30;;;3.50;90.40;;;;;;5050817;28;20263;-67
2022/03/03 06:40:33;;;;;;;18.25;15.80;;;3.50;90.90;;;;;;5052345;28;20399;-67
2022/03/03 06:43:00;;;;;;;18.42;15.27;;;3.50;90.80;;;;;;5051199;28;20268;-67
2022/03/03 06:45:31;;;;;;;22.73;17.10;;;3.10;90.60;;;;;;5051763;28;20188;-67
2022/03/03 06:47:58;;;;;;;19.77;15.48;;;3.50;91.40;;;;;;5050276;28;20217;-67
2022/03/03 06:50:24;;;;;;;19.58;16.15;;;3.60;91.70;;;;;;5052043;28;20176;-67
2022/03/03 06:52:51;;;;;;;22.00;15.73;;;3.60;91.50;;;;;;5051383;28;20185;-67
2022/03/03 06:55:25;;;;;;;22.42;15.95;;;3.80;91.30;;;;;;5052127;28;20456;-67
2022/03/03 06:57:58;;;;;;;20.45;16.23;;;3.60;92.00;;;;;;5051056;28;20177;-67
2022/03/03 07:00:34;;;;;;;21.52;15.35;;;3.60;92.20;;;;;;5051516;28;20516;-67
2022/03/03 07:03:01;;;;;;;21.27;14.73;;;3.30;92.40;;;;;;5050915;28;20162;-67
2022/03/03 07:05:29;;;;;;;29.92;16.98;;;3.60;92.30;;;;;;5052423;28;20178;-68
2022/03/03 07:07:55;;;;;;;23.52;16.00;;;3.30;92.50;;;;;;5051905;28;20612;-67
2022/03/03 07:10:25;;;;;;;21.33;16.20;;;3.70;92.50;;;;;;5052842;28;20181;-67
2022/03/03 07:12:57;;;;;;;21.27;16.13;;;3.60;92.50;;;;;;5056337;28;20166;-67
2022/03/03 07:15:24;;;;;;;21.27;16.77;;;3.70;92.80;;;;;;5072402;28;20208;-67
2022/03/03 07:17:53;;;;;;;24.83;16.85;;;3.70;93.00;;;;;;5071934;28;20177;-67
2022/03/03 07:20:40;;;;;;;22.02;15.65;;;3.70;93.10;;;;;;5057770;28;20221;-67
2022/03/03 07:23:35;;;;;;;20.40;15.65;;;3.70;92.80;;;;;;5050856;28;20181;-67
2022/03/03 07:26:02;;;;;;;21.52;15.52;;;3.80;92.80;;;;;;5049580;28;20848;-67
2022/03/03 07:28:30;;;;;;;20.25;15.82;;;3.50;92.30;;;;;;5051289;28;20181;-67
2022/03/03 07:30:59;;;;;;;20.08;16.85;;;3.80;92.10;;;;;;5050101;28;20618;-67
2022/03/03 07:33:47;;;;;;;22.63;17.17;;;3.90;92.30;;;;;;5050941;28;20541;-72
2022/03/03 07:36:24;;;;;;;20.27;15.63;;;3.90;92.30;;;;;;5050116;28;20657;-67
2022/03/03 07:39:07;;;;;;;23.52;16.83;;;4.00;91.60;;;;;;5050492;28;20519;-67
2022/03/03 07:41:33;;;;;;;20.50;15.88;;;3.80;91.10;;;;;;5050676;28;20188;-67
2022/03/03 07:43:59;;;;;;;20.87;16.70;;;4.20;91.00;;;;;;5050771;28;20174;-67
2022/03/03 07:46:27;;;;;;;21.67;16.63;;;4.20;90.80;;;;;;5050382;28;20649;-68
2022/03/03 07:48:53;;;;;;;24.60;16.77;;;4.30;90.90;;;;;;5050877;28;20196;-67
2022/03/03 07:51:21;;;;;;;22.52;16.48;;;4.30;90.60;;;;;;5051330;28;20179;-67
2022/03/03 07:53:48;;;;;;;24.85;18.75;;;4.40;90.60;;;;;;5051294;28;20186;-74
2022/03/03 07:56:27;;;;;;;22.70;17.55;;;4.60;90.30;;;;;;5051551;28;20236;-67
2022/03/03 07:59:01;;;;;;;26.30;18.23;;;4.10;89.80;;;;;;5051454;28;20633;-68
2022/03/03 08:01:29;;;;;;;24.58;17.45;;;4.60;89.50;;;;;;5055847;28;20197;-68
2022/03/03 08:03:57;;;;;;;25.92;17.80;;;4.60;88.80;;;;;;5053905;28;20185;-69
2022/03/03 08:06:23;;;;;;;21.02;16.95;;;4.60;88.90;;;;;;5053983;28;20185;-68
2022/03/03 08:08:52;;;;;;;23.75;16.52;;;4.40;89.20;;;;;;5054431;28;20173;-74
2022/03/03 08:11:19;;;;;;;19.15;15.50;;;4.70;88.70;;;;;;5054852;28;20177;-68
2022/03/03 08:13:46;;;;;;;23.33;16.55;;;4.60;87.90;;;;;;5054247;28;20201;-68
2022/03/03 08:16:12;;;;;;;21.33;16.40;;;4.10;87.00;;;;;;5052065;28;20241;-67
2022/03/03 08:18:38;;;;;;;20.03;16.30;;;4.60;88.70;;;;;;5054565;28;20202;-66
2022/03/03 08:21:05;;;;;;;23.00;17.17;;;4.60;89.30;;;;;;5054287;28;20264;-69
2022/03/03 08:23:32;;;;;;;21.60;16.08;;;4.50;88.90;;;;;;5055404;28;20190;-67
2022/03/03 08:25:59;;;;;;;21.83;16.35;;;4.60;90.10;;;;;;5054564;28;20182;-67
2022/03/03 08:28:26;;;;;;;22.42;16.35;;;4.70;90.00;;;;;;5055347;28;20271;-67
2022/03/03 08:31:00;;;;;;;17.05;15.20;;;4.40;88.80;;;;;;5054469;28;20240;-68
2022/03/03 08:33:39;;;;;;;22.23;15.70;;;4.90;88.60;;;;;;5055451;28;20170;-67
2022/03/03 08:36:15;;;;;;;20.85;15.80;;;5.10;89.40;;;;;;5054458;28;20225;-67
2022/03/03 08:38:49;;;;;;;20.88;15.63;;;5.30;88.50;;;;;;5055668;28;20173;-67
2022/03/03 08:41:19;;;;;;;21.38;15.23;;;5.30;86.30;;;;;;5054850;28;20684;-68
2022/03/03 08:43:48;;;;;;;20.38;14.95;;;5.30;85.60;;;;;;5043564;28;20261;-68
2022/03/03 08:46:20;;;;;;;20.98;16.40;;;5.50;87.10;;;;;;5053035;28;20185;-67
2022/03/03 08:48:48;;;;;;;21.55;17.08;;;5.50;86.40;;;;;;5054720;28;20174;-68
2022/03/03 08:51:16;;;;;;;25.02;16.48;;;5.60;86.40;;;;;;5054384;28;20268;-67
2022/03/03 08:53:41;;;;;;;22.02;16.65;;;5.80;87.70;;;;;;5054680;28;20232;-67
2022/03/03 08:56:08;;;;;;;19.30;16.53;;;5.90;85.90;;;;;;5053554;28;20654;-67
2022/03/03 08:58:35;;;;;;;21.23;16.20;;;6.10;86.40;;;;;;5054097;28;20205;-67
2022/03/03 09:01:01;;;;;;;23.87;16.57;;;6.20;84.80;;;;;;5053058;28;20445;-67
2022/03/03 09:03:26;;;;;;;23.58;16.75;;;6.30;85.30;;;;;;5053583;28;20403;-68
2022/03/03 09:05:54;;;;;;;23.03;16.47;;;6.50;85.80;;;;;;5052235;28;20187;-69
2022/03/03 09:08:20;;;;;;;25.57;17.27;;;6.60;85.00;;;;;;5052603;28;20421;-71
2022/03/03 09:10:46;;;;;;;18.90;14.63;;;6.70;85.90;;;;;;5051519;28;20422;-67
2022/03/03 09:13:12;;;;;;;18.03;13.70;;;6.90;83.20;;;;;;5052182;28;20180;-68
2022/03/03 09:15:38;;;;;;;16.83;14.47;;;7.00;79.40;;;;;;5049701;28;20210;-68
2022/03/03 09:18:04;;;;;;;15.43;13.80;;;7.10;80.20;;;;;;5050215;28;20539;-68
2022/03/03 09:20:32;;;;;;;18.70;15.20;;;7.30;81.20;;;;;;5052526;28;20880;-68
2022/03/03 09:22:58;;;;;;;16.37;13.40;;;7.50;83.30;;;;;;5052710;28;20881;-68
2022/03/03 09:25:24;;;;;;;16.73;15.03;;;7.60;79.10;;;;;;5051871;28;20424;-67
2022/03/03 09:27:50;;;;;;;17.33;14.97;;;7.80;80.00;;;;;;5052238;28;20408;-67
2022/03/03 09:30:16;;;;;;;18.50;15.33;;;8.00;80.60;;;;;;5051806;28;20202;-67
2022/03/03 09:32:41;;;;;;;18.70;15.60;;;8.20;80.30;;;;;;5052912;28;20224;-68
2022/03/03 09:35:08;;;;;;;19.43;15.00;;;8.40;78.50;;;;;;5053121;28;20814;-68
2022/03/03 09:37:34;;;;;;;15.77;14.17;;;8.60;77.70;;;;;;5052964;28;20252;-68
2022/03/03 09:40:00;;;;;;;18.23;15.50;;;8.90;76.20;;;;;;5053260;28;20454;-67
2022/03/03 09:42:34;;;;;;;16.47;14.77;;;9.20;74.50;;;;;;5052634;28;20816;-68
2022/03/03 09:45:09;;;;;;;18.23;15.60;;;9.40;73.70;;;;;;5053068;28;20929;-67
2022/03/03 09:47:36;;;;;;;17.90;14.80;;;9.70;74.20;;;;;;5053784;28;20463;-67
2022/03/03 09:50:04;;;;;;;18.87;16.30;;;10.00;73.00;;;;;;5052925;28;20409;-67
2022/03/03 09:52:30;;;;;;;16.53;14.80;;;10.20;69.30;;;;;;5052054;28;20424;-68
2022/03/03 09:54:57;;;;;;;18.43;15.20;;;10.50;71.30;;;;;;5052435;28;20453;-68
2022/03/03 09:57:24;;;;;;;17.83;14.90;;;10.80;70.50;;;;;;5053545;28;20946;-67
2022/03/03 09:59:56;;;;;;;18.70;15.30;;;11.20;69.20;;;;;;5053204;28;20464;-68
2022/03/03 10:02:22;;;;;;;16.73;14.10;;;11.50;65.40;;;;;;5053250;28;20424;-68
2022/03/03 10:04:48;;;;;;;15.50;14.00;;;11.70;62.00;;;;;;5053242;28;20805;-68
2022/03/03 10:07:14;;;;;;;17.37;15.13;;;12.00;63.30;;;;;;5052575;28;20535;-68
2022/03/03 10:12:28;;;;;;;18.40;13.37;;;12.50;58.20;;;;;;5033684;28;20190;-68
2022/03/03 10:14:58;;;;;;;15.07;13.50;;;12.80;58.00;;;;;;5031262;28;20452;-68
2022/03/03 10:17:35;;;;;;;16.40;14.70;;;13.10;55.50;;;;;;5051352;28;20426;-68
2022/03/03 10:20:03;;;;;;;15.60;14.10;;;13.20;55.00;;;;;;5050014;28;20501;-68
2022/03/03 10:22:48;;;;;;;15.40;13.90;;;13.20;56.30;;;;;;5051899;28;20519;-68
2022/03/03 10:25:29;;;;;;;15.10;13.60;;;13.40;58.20;;;;;;5046490;28;20434;-68
2022/03/03 10:27:55;;;;;;;14.63;13.13;;;13.80;56.50;;;;;;5052674;28;20427;-68
2022/03/03 10:30:21;;;;;;;15.50;13.90;;;14.00;56.20;;;;;;5053267;28;20767;-67
2022/03/03 10:32:47;;;;;;;15.57;14.07;;;14.40;56.40;;;;;;5053017;28;20430;-67
2022/03/03 10:35:17;;;;;;;14.27;12.87;;;14.60;51.30;;;;;;5052284;28;20305;-68
2022/03/03 10:37:47;;;;;;;14.60;13.10;;;14.90;51.20;;;;;;5052349;28;20421;-68
2022/03/03 10:40:16;;;;;;;16.87;14.43;;;15.10;51.20;;;;;;5052211;28;20469;-68
2022/03/03 10:42:44;;;;;;;14.20;12.70;;;15.20;49.00;;;;;;5052859;28;20445;-68
2022/03/03 10:45:15;;;;;;;13.67;12.27;;;15.30;49.00;;;;;;5052024;28;20429;-68
2022/03/03 10:48:00;;;;;;;12.33;11.23;;;15.10;46.20;;;;;;5051327;28;20401;-67
2022/03/03 10:50:26;;;;;;;14.37;12.50;;;14.90;45.10;;;;;;5051690;28;20408;-68
2022/03/03 10:52:52;;;;;;;13.57;12.27;;;15.00;47.80;;;;;;5052180;28;20406;-79
2022/03/03 10:55:18;;;;;;;16.50;13.60;;;15.40;49.00;;;;;;5052374;28;20507;-68
2022/03/03 10:57:49;;;;;;;14.17;12.87;;;15.60;47.00;;;;;;5052751;28;20808;-68
2022/03/03 11:00:21;;;;;;;14.10;12.73;;;15.90;46.10;;;;;;5051673;28;20431;-68
2022/03/03 11:02:49;;;;;;;13.03;11.23;;;16.20;48.50;;;;;;5051097;28;20424;-68
2022/03/03 11:05:16;;;;;;;14.57;13.17;;;16.50;47.20;;;;;;5051664;28;20427;-67
2022/03/03 11:07:47;;;;;;;12.97;11.77;;;16.60;42.90;;;;;;5052156;28;20506;-67
2022/03/03 11:10:18;;;;;;;12.33;11.03;;;16.60;42.20;;;;;;5052005;28;20621;-68
2022/03/03 11:12:45;;;;;;;12.27;11.23;;;16.90;43.50;;;;;;5052635;28;20436;-67
2022/03/03 11:15:18;;;;;;;13.60;12.33;;;17.20;43.90;;;;;;5051797;28;20459;-67
2022/03/03 11:17:45;;;;;;;12.50;11.40;;;17.60;44.20;;;;;;5052303;28;20881;-67
2022/03/03 11:20:14;;;;;;;12.80;11.60;;;17.50;43.70;;;;;;5051753;28;20522;-67
2022/03/03 11:22:42;;;;;;;13.50;12.40;;;17.80;44.50;;;;;;5052587;28;20407;-67
2022/03/03 11:25:12;;;;;;;12.67;11.57;;;18.00;42.50;;;;;;5051143;28;20412;-67
2022/03/03 11:27:40;;;;;;;15.30;12.80;;;18.10;42.00;;;;;;5051358;28;20427;-67
2022/03/03 11:30:24;;;;;;;14.30;12.30;;;18.20;43.70;;;;;;5049129;28;20428;-67
2022/03/03 11:33:19;;;;;;;13.80;12.50;;;18.00;43.00;;;;;;5049532;28;20460;-67
2022/03/03 11:35:49;;;;;;;15.97;13.27;;;18.10;43.00;;;;;;5056067;28;20505;-67
2022/03/03 11:38:16;;;;;;;15.80;12.67;;;18.10;42.60;;;;;;5054779;28;20465;-67
2022/03/03 11:40:52;;;;;;;14.90;13.60;;;18.10;42.00;;;;;;5054917;28;20420;-69
2022/03/03 11:43:17;;;;;;;15.00;12.50;;;17.90;43.20;;;;;;5054551;28;20412;-67
2022/03/03 11:45:57;;;;;;;14.47;13.07;;;18.00;41.60;;;;;;5052070;28;20424;-68
2022/03/03 11:48:24;;;;;;;16.00;14.60;;;18.10;41.80;;;;;;5055440;28;20170;-67
2022/03/03 11:50:54;;;;;;;14.27;12.87;;;18.10;41.20;;;;;;5054685;28;20423;-67
2022/03/03 11:53:24;;;;;;;12.83;11.73;;;18.10;41.90;;;;;;5052630;28;20400;-67
2022/03/03 11:55:57;;;;;;;14.53;13.23;;;18.10;41.90;;;;;;5054550;28;20481;-69
2022/03/03 11:58:40;;;;;;;15.50;14.00;;;18.20;42.30;;;;;;5054654;28;20495;-67
2022/03/03 12:01:13;;;;;;;15.37;13.97;;;18.10;42.90;;;;;;5054271;28;20420;-67
2022/03/03 12:04:00;;;;;;;15.47;13.87;;;18.10;43.10;;;;;;5052146;28;20541;-68
2022/03/03 12:06:37;;;;;;;15.93;14.53;;;17.90;41.90;;;;;;5050028;28;20775;-68
2022/03/03 12:09:20;;;;;;;16.10;14.50;;;17.80;42.60;;;;;;5051826;28;20443;-67
2022/03/03 12:11:47;;;;;;;16.23;14.60;;;17.90;43.00;;;;;;5052414;28;20477;-68
2022/03/03 12:14:57;;;;;;;14.93;13.53;;;17.80;44.50;;;;;;5052487;28;20427;-66
2022/03/03 12:17:42;;;;;;;15.10;13.70;;;17.30;44.90;;;;;;5010053;28;20434;-67
2022/03/03 12:20:27;;;;;;;14.33;13.07;;;17.40;43.60;;;;;;5050846;28;20482;-68
2022/03/03 12:23:02;;;;;;;14.53;13.03;;;17.40;43.30;;;;;;5053131;28;20428;-67
2022/03/03 12:25:59;;;;;;;15.23;13.70;;;17.30;43.50;;;;;;5053029;28;20431;-67
2022/03/03 12:28:35;;;;;;;14.90;13.60;;;17.30;44.70;;;;;;5055443;28;20404;-67
2022/03/03 12:31:02;;;;;;;15.73;14.13;;;17.40;45.30;;;;;;5054421;28;20422;-67
2022/03/03 12:33:30;;;;;;;17.07;15.50;;;17.20;45.00;;;;;;5055611;28;20423;-67
2022/03/03 12:36:05;;;;;;;16.53;15.10;;;17.00;45.00;;;;;;5053404;28;20452;-72
2022/03/03 12:38:33;;;;;;;15.70;14.20;;;16.90;45.90;;;;;;5055754;28;20441;-67
2022/03/03 12:40:59;;;;;;;17.03;15.40;;;17.00;45.10;;;;;;5054973;28;20545;-68
2022/03/03 12:43:25;;;;;;;15.00;13.60;;;17.00;44.20;;;;;;5054790;28;20444;-67
2022/03/03 12:45:51;;;;;;;15.53;13.57;;;16.70;42.80;;;;;;5054473;28;20420;-67
2022/03/03 12:48:30;;;;;;;15.23;13.37;;;16.70;44.20;;;;;;5054504;28;20797;-67